createdAt,value
2022-11-16T00:01:59.954Z,7.05
2022-11-16T00:04:26.322Z,6.47
2022-11-16T00:06:52.833Z,6.80
2022-11-16T00:09:28.572Z,6.47
2022-11-16T00:11:56.953Z,7.38
2022-11-16T00:14:25.687Z,5.45
2022-11-16T00:16:52.057Z,5.72
2022-11-16T00:19:18.749Z,5.88
2022-11-16T00:21:45.104Z,9.20
2022-11-16T00:24:15.657Z,10.10
2022-11-16T00:26:42.147Z,6.95
2022-11-16T00:29:19.638Z,14.13
2022-11-16T00:31:47.045Z,6.70
2022-11-16T00:34:13.560Z,7.80
2022-11-16T00:36:40.062Z,8.80
2022-11-16T00:39:06.382Z,7.50
2022-11-16T00:41:32.729Z,10.45
2022-11-16T00:43:59.053Z,7.45
2022-11-16T00:46:25.401Z,5.88
2022-11-16T00:48:51.704Z,5.97
2022-11-16T00:51:18.137Z,5.97
2022-11-16T00:53:44.467Z,6.07
2022-11-16T00:56:10.814Z,8.15
2022-11-16T00:58:37.154Z,5.85
2022-11-16T01:01:07.886Z,6.13
2022-11-16T01:03:35.229Z,6.63
2022-11-16T01:06:02.813Z,7.10
2022-11-16T01:08:29.140Z,7.30
2022-11-16T01:10:55.585Z,7.53
2022-11-16T01:13:21.979Z,8.90
2022-11-16T01:15:48.394Z,7.00
2022-11-16T01:18:14.900Z,8.07
2022-11-16T01:20:41.327Z,8.90
2022-11-16T01:23:07.680Z,7.18
2022-11-16T01:25:34.025Z,6.05
2022-11-16T01:28:00.365Z,6.93
2022-11-16T01:30:26.745Z,7.03
2022-11-16T01:32:53.057Z,7.07
2022-11-16T01:35:21.761Z,8.00
2022-11-16T01:37:48.141Z,6.75
2022-11-16T01:40:14.754Z,7.15
2022-11-16T01:42:41.210Z,6.47
2022-11-16T01:45:16.784Z,8.77
2022-11-16T01:47:43.473Z,8.82
2022-11-16T01:50:14.477Z,6.68
2022-11-16T01:52:46.496Z,8.63
2022-11-16T01:55:13.074Z,8.02
2022-11-16T01:57:41.805Z,10.45
2022-11-16T02:00:09.883Z,7.45
2022-11-16T02:02:36.283Z,8.85
2022-11-16T02:05:03.133Z,7.55
2022-11-16T02:08:01.445Z,8.30
2022-11-16T02:11:00.555Z,6.88
2022-11-16T02:13:40.822Z,7.15
2022-11-16T02:16:28.126Z,6.57
2022-11-16T02:19:21.955Z,7.75
2022-11-16T02:22:17.122Z,8.15
2022-11-16T02:24:50.188Z,10.68
2022-11-16T02:27:22.997Z,6.13
2022-11-16T02:29:53.735Z,7.13
2022-11-16T02:32:39.815Z,6.55
2022-11-16T02:35:19.919Z,6.35
2022-11-16T02:37:51.357Z,7.32
2022-11-16T02:40:20.318Z,6.22
2022-11-16T02:42:55.376Z,6.32
2022-11-16T02:45:24.410Z,7.68
2022-11-16T02:47:51.860Z,6.57
2022-11-16T02:50:19.532Z,9.27
2022-11-16T02:52:45.902Z,7.80
2022-11-16T02:55:12.827Z,7.35
2022-11-16T02:57:48.685Z,6.90
2022-11-16T03:00:36.294Z,8.63
2022-11-16T03:03:11.155Z,6.50
2022-11-16T03:05:41.994Z,8.57
2022-11-16T03:08:22.331Z,6.60
2022-11-16T03:11:12.105Z,7.70
2022-11-16T03:13:39.893Z,8.10
2022-11-16T03:16:31.420Z,7.18
2022-11-16T03:18:59.035Z,7.50
2022-11-16T03:21:30.756Z,7.65
2022-11-16T03:23:57.545Z,9.68
2022-11-16T03:26:26.780Z,8.68
2022-11-16T03:29:14.558Z,7.82
2022-11-16T03:31:51.753Z,7.45
2022-11-16T03:34:20.534Z,7.75
2022-11-16T03:36:47.303Z,8.25
2022-11-16T03:39:19.053Z,9.23
2022-11-16T03:41:46.641Z,8.30
2022-11-16T03:44:14.535Z,8.43
2022-11-16T03:46:45.288Z,8.85
2022-11-16T03:49:11.640Z,9.18
2022-11-16T03:51:38.673Z,10.30
2022-11-16T03:54:05.238Z,11.85
2022-11-16T03:56:31.602Z,9.25
2022-11-16T03:58:57.933Z,10.05
2022-11-16T04:01:24.309Z,9.13
2022-11-16T04:03:50.817Z,9.45
2022-11-16T04:06:35.781Z,10.68
2022-11-16T04:09:28.214Z,12.38
2022-11-16T04:12:13.165Z,11.00
2022-11-16T04:15:06.245Z,11.02
2022-11-16T04:17:51.029Z,11.02
2022-11-16T04:20:35.990Z,14.00
2022-11-16T04:23:28.084Z,10.98
2022-11-16T04:25:54.476Z,12.43
2022-11-16T04:28:24.018Z,12.13
2022-11-16T04:31:14.066Z,13.60
2022-11-16T04:33:59.263Z,11.75
2022-11-16T04:36:44.256Z,11.40
2022-11-16T04:39:10.657Z,12.52
2022-11-16T04:41:55.380Z,13.93
2022-11-16T04:44:25.888Z,14.23
2022-11-16T04:47:07.067Z,13.90
2022-11-16T04:49:33.710Z,16.10
2022-11-16T04:52:00.125Z,15.73
2022-11-16T04:54:26.460Z,17.10
2022-11-16T04:56:52.778Z,17.23
2022-11-16T04:59:19.093Z,18.33
2022-11-16T05:02:04.125Z,19.42
2022-11-16T05:04:30.480Z,18.65
2022-11-16T05:06:56.838Z,21.67
2022-11-16T05:09:23.177Z,19.83
2022-11-16T05:11:49.532Z,21.83
2022-11-16T05:14:15.882Z,24.38
2022-11-16T05:16:42.463Z,21.58
2022-11-16T05:19:27.252Z,20.50
2022-11-16T05:21:53.583Z,21.17
2022-11-16T05:24:34.848Z,21.15
2022-11-16T05:27:06.674Z,21.33
2022-11-16T05:29:33.326Z,21.17
2022-11-16T05:31:59.835Z,20.85
2022-11-16T05:34:26.605Z,20.42
2022-11-16T05:36:53.099Z,20.85
2022-11-16T05:39:19.501Z,20.23
2022-11-16T05:41:46.412Z,23.23
2022-11-16T05:44:13.785Z,22.42
2022-11-16T05:46:40.194Z,21.70
2022-11-16T05:49:07.828Z,23.83
2022-11-16T05:51:38.145Z,22.67
2022-11-16T05:54:05.279Z,23.83
2022-11-16T05:56:32.278Z,23.55
2022-11-16T05:58:58.916Z,23.48
2022-11-16T06:01:25.480Z,23.20
2022-11-16T06:03:52.183Z,22.13
2022-11-16T06:06:18.758Z,22.80
2022-11-16T06:08:45.113Z,26.67
2022-11-16T06:11:12.072Z,25.55
2022-11-16T06:13:38.617Z,23.20
2022-11-16T06:16:05.318Z,23.52
2022-11-16T06:18:32.287Z,24.63
2022-11-16T06:20:58.880Z,23.88
2022-11-16T06:23:25.197Z,26.20
2022-11-16T06:25:55.134Z,24.52
2022-11-16T06:28:21.953Z,27.77
2022-11-16T06:30:48.820Z,26.85
2022-11-16T06:33:15.216Z,24.67
2022-11-16T06:35:42.348Z,28.60
2022-11-16T06:38:08.710Z,24.73
2022-11-16T06:40:35.165Z,27.13
2022-11-16T06:43:01.504Z,28.45
2022-11-16T06:45:27.852Z,26.10
2022-11-16T06:47:54.187Z,27.75
2022-11-16T06:50:20.616Z,25.52
2022-11-16T06:52:48.237Z,27.90
2022-11-16T06:55:15.257Z,25.08
2022-11-16T06:57:41.692Z,26.85
2022-11-16T07:00:10.226Z,25.65
2022-11-16T07:02:37.681Z,23.45
2022-11-16T07:05:05.223Z,26.73
2022-11-16T07:07:32.007Z,23.27
2022-11-16T07:09:58.386Z,24.52
2022-11-16T07:12:24.700Z,27.40
2022-11-16T07:14:51.061Z,26.00
2022-11-16T07:17:17.400Z,24.67
2022-11-16T07:19:43.920Z,22.67
2022-11-16T07:22:10.268Z,27.58
2022-11-16T07:24:36.616Z,23.20
2022-11-16T07:27:03.025Z,22.23
2022-11-16T07:29:29.713Z,22.45
2022-11-16T07:31:56.062Z,21.30
2022-11-16T07:34:22.394Z,19.33
2022-11-16T07:36:48.721Z,21.48
2022-11-16T07:39:15.068Z,20.80
2022-11-16T07:41:42.453Z,23.45
2022-11-16T07:44:12.017Z,22.77
2022-11-16T07:46:46.501Z,23.70
2022-11-16T07:49:17.744Z,23.67
2022-11-16T07:51:45.527Z,22.80
2022-11-16T07:54:13.061Z,25.98
2022-11-16T07:56:39.594Z,23.30
2022-11-16T07:59:06.022Z,26.55
2022-11-16T08:01:33.072Z,25.20
2022-11-16T08:04:01.873Z,21.42
2022-11-16T08:06:30.533Z,23.08
2022-11-16T08:08:58.949Z,22.48
2022-11-16T08:11:25.584Z,22.27
2022-11-16T08:13:51.955Z,21.90
2022-11-16T08:16:20.529Z,19.15
2022-11-16T08:18:47.110Z,19.70
2022-11-16T08:21:15.235Z,17.33
2022-11-16T08:23:41.870Z,21.13
2022-11-16T08:26:10.980Z,7.90
2022-11-16T08:28:37.667Z,8.80
2022-11-16T08:31:12.586Z,6.85
2022-11-16T08:33:38.948Z,6.05
2022-11-16T08:36:12.527Z,7.45
2022-11-16T08:38:42.789Z,4.90
2022-11-16T08:41:09.126Z,6.57
2022-11-16T08:43:35.817Z,4.07
2022-11-16T08:46:02.366Z,5.35
2022-11-16T08:48:28.695Z,8.40
2022-11-16T08:51:16.360Z,4.40
2022-11-16T08:53:41.608Z,5.07
2022-11-16T08:56:11.583Z,3.53
2022-11-16T08:58:38.353Z,5.28
2022-11-16T09:01:13.773Z,7.70
2022-11-16T09:03:41.064Z,5.55
2022-11-16T09:06:08.308Z,5.25
2022-11-16T09:08:37.043Z,4.35
2022-11-16T09:11:05.012Z,6.07
2022-11-16T09:13:31.600Z,6.88
2022-11-16T09:15:58.952Z,5.57
2022-11-16T09:18:26.079Z,2.83
2022-11-16T09:20:52.441Z,5.20
2022-11-16T09:23:24.919Z,5.13
2022-11-16T09:25:51.783Z,3.95
2022-11-16T09:28:18.865Z,4.90
2022-11-16T09:30:50.008Z,7.00
2022-11-16T09:33:16.409Z,4.20
2022-11-16T09:35:42.779Z,10.13
2022-11-16T09:38:14.845Z,5.57
2022-11-16T09:40:46.856Z,6.20
2022-11-16T09:43:18.820Z,8.38
2022-11-16T09:46:12.807Z,7.25
2022-11-16T09:48:39.999Z,7.93
2022-11-16T09:51:08.606Z,5.05
2022-11-16T09:53:46.134Z,4.78
2022-11-16T09:56:22.089Z,7.68
2022-11-16T09:58:55.089Z,6.47
2022-11-16T10:01:38.521Z,7.57
2022-11-16T10:04:20.214Z,6.20
2022-11-16T10:07:17.729Z,4.18
2022-11-16T10:09:45.112Z,4.18
2022-11-16T10:12:36.108Z,5.30
2022-11-16T10:15:08.151Z,12.57
2022-11-16T10:17:58.936Z,4.50
2022-11-16T10:20:59.315Z,5.93
2022-11-16T10:23:53.620Z,4.50
2022-11-16T10:26:30.194Z,6.25
2022-11-16T10:29:16.459Z,5.18
2022-11-16T10:32:03.630Z,7.43
2022-11-16T10:34:55.102Z,6.65
2022-11-16T10:37:23.001Z,7.43
2022-11-16T10:39:51.159Z,9.15
2022-11-16T10:42:23.233Z,4.05
2022-11-16T10:44:58.420Z,7.35
2022-11-16T10:47:42.459Z,6.43
2022-11-16T10:50:25.769Z,4.35
2022-11-16T10:52:52.105Z,4.65
2022-11-16T10:55:19.596Z,7.18
2022-11-16T10:57:56.526Z,6.18
2022-11-16T11:00:52.169Z,7.07
2022-11-16T11:03:30.993Z,9.27
2022-11-16T11:05:57.492Z,7.72
2022-11-16T11:08:30.980Z,9.18
2022-11-16T11:11:23.819Z,10.10
2022-11-16T11:14:14.545Z,8.27
2022-11-16T11:16:41.453Z,7.32
2022-11-16T11:19:18.826Z,8.95
2022-11-16T11:21:45.369Z,8.25
2022-11-16T11:24:43.403Z,12.93
2022-11-16T11:27:04.659Z,6.05
2022-11-16T11:29:33.109Z,7.40
2022-11-16T11:32:19.298Z,7.32
2022-11-16T11:34:54.300Z,6.80
2022-11-16T11:37:25.346Z,7.82
2022-11-16T11:40:25.157Z,6.28
2022-11-16T11:43:02.821Z,6.63
2022-11-16T11:45:33.611Z,6.88
2022-11-16T11:48:08.245Z,6.78
2022-11-16T11:50:42.105Z,5.55
2022-11-16T11:53:39.585Z,15.55
2022-11-16T11:56:06.331Z,8.75
2022-11-16T11:58:34.369Z,8.45
2022-11-16T12:01:25.733Z,10.05
2022-11-16T12:04:07.768Z,4.93
2022-11-16T12:06:46.639Z,7.32
2022-11-16T12:09:45.804Z,9.07
2022-11-16T12:12:24.546Z,7.15
2022-11-16T12:15:26.436Z,8.55
2022-11-16T12:18:15.987Z,8.32
2022-11-16T12:21:03.713Z,8.60
2022-11-16T12:23:37.465Z,9.68
2022-11-16T12:26:32.598Z,8.52
2022-11-16T12:29:32.484Z,6.55
2022-11-16T12:32:19.872Z,6.88
2022-11-16T12:35:12.956Z,11.32
2022-11-16T12:38:00.887Z,3.25
2022-11-16T12:40:35.837Z,7.00
2022-11-16T12:43:15.244Z,7.28
2022-11-16T12:45:56.584Z,5.88
2022-11-16T12:49:03.894Z,10.00
2022-11-16T12:51:53.553Z,5.43
2022-11-16T12:54:57.682Z,6.75
2022-11-16T12:57:38.563Z,9.90
2022-11-16T13:00:07.000Z,7.28
2022-11-16T13:02:41.177Z,16.38
2022-11-16T13:07:48.255Z,5.78
2022-11-16T13:10:21.136Z,7.38
2022-11-16T13:12:55.671Z,8.95
2022-11-16T13:15:33.673Z,7.30
2022-11-16T13:18:02.053Z,6.75
2022-11-16T13:20:45.361Z,10.05
2022-11-16T13:23:33.459Z,4.22
2022-11-16T13:26:10.359Z,8.98
2022-11-16T13:28:51.949Z,9.38
2022-11-16T13:31:32.523Z,7.57
2022-11-16T13:34:05.511Z,8.15
2022-11-16T13:36:39.864Z,5.97
2022-11-16T13:39:07.676Z,5.15
2022-11-16T13:41:35.684Z,6.10
2022-11-16T13:44:04.232Z,5.50
2022-11-16T13:46:56.213Z,7.90
2022-11-16T13:49:41.364Z,9.23
2022-11-16T13:54:55.948Z,7.97
2022-11-16T13:57:32.853Z,7.95
2022-11-16T14:00:01.921Z,6.40
2022-11-16T14:02:29.428Z,5.75
2022-11-16T14:04:59.525Z,5.80
2022-11-16T14:07:32.102Z,6.95
2022-11-16T14:09:59.168Z,7.97
2022-11-16T14:12:37.342Z,7.38
2022-11-16T14:15:21.911Z,7.72
2022-11-16T14:20:22.077Z,6.95
2022-11-16T14:23:07.104Z,6.73
2022-11-16T14:25:44.963Z,10.43
2022-11-16T14:28:13.381Z,6.43
2022-11-16T14:30:55.305Z,6.80
2022-11-16T14:33:30.444Z,4.32
2022-11-16T14:35:56.835Z,7.60
2022-11-16T14:38:32.472Z,6.82
2022-11-16T14:41:00.102Z,6.30
2022-11-16T14:43:40.137Z,4.80
2022-11-16T14:46:09.582Z,9.18
2022-11-16T14:48:43.952Z,6.10
2022-11-16T14:51:16.604Z,6.85
2022-11-16T14:53:52.903Z,8.88
2022-11-16T14:56:19.468Z,6.85
2022-11-16T14:59:00.979Z,8.45
2022-11-16T15:01:33.027Z,9.10
2022-11-16T15:04:04.548Z,10.32
2022-11-16T15:06:36.869Z,8.98
2022-11-16T15:09:04.605Z,6.55
2022-11-16T15:11:57.434Z,6.75
2022-11-16T15:14:30.178Z,4.53
2022-11-16T15:16:59.334Z,7.30
2022-11-16T15:19:29.948Z,5.50
2022-11-16T15:21:58.800Z,11.30
2022-11-16T15:24:32.829Z,6.22
2022-11-16T15:27:08.992Z,11.73
2022-11-16T15:29:35.522Z,9.15
2022-11-16T15:32:01.833Z,8.68
2022-11-16T15:34:28.137Z,7.13
2022-11-16T15:36:54.465Z,6.82
2022-11-16T15:39:23.005Z,5.70
2022-11-16T15:41:50.341Z,6.80
2022-11-16T15:44:18.979Z,8.32
2022-11-16T15:46:47.840Z,8.45
2022-11-16T15:49:29.090Z,11.65
2022-11-16T15:51:56.958Z,4.25
2022-11-16T15:54:30.046Z,4.18
2022-11-16T15:57:05.183Z,6.07
2022-11-16T15:59:33.369Z,6.20
2022-11-16T16:01:59.788Z,8.93
2022-11-16T16:04:26.713Z,15.93
2022-11-16T16:06:55.455Z,7.53
2022-11-16T16:09:25.219Z,8.15
2022-11-16T16:11:52.998Z,7.55
2022-11-16T16:14:29.575Z,7.75
2022-11-16T16:16:58.407Z,2.85
2022-11-16T16:19:33.873Z,5.63
2022-11-16T16:22:00.492Z,6.90
2022-11-16T16:24:53.520Z,4.40
2022-11-16T16:27:30.919Z,5.85
2022-11-16T16:30:02.545Z,5.32
2022-11-16T16:32:34.201Z,3.75
2022-11-16T16:35:02.490Z,4.80
2022-11-16T16:37:30.519Z,5.97
2022-11-16T16:39:57.304Z,5.63
2022-11-16T16:42:23.772Z,5.20
2022-11-16T16:44:50.192Z,5.00
2022-11-16T16:47:17.358Z,5.63
2022-11-16T16:49:43.776Z,5.78
2022-11-16T16:52:12.325Z,6.80
2022-11-16T16:54:38.755Z,3.22
2022-11-16T16:57:05.090Z,5.65
2022-11-16T16:59:31.501Z,5.10
2022-11-16T17:01:58.499Z,6.38
2022-11-16T17:04:25.352Z,4.90
2022-11-16T17:06:53.157Z,4.85
2022-11-16T17:09:19.978Z,7.20
2022-11-16T17:11:47.279Z,5.60
2022-11-16T17:14:13.636Z,6.80
2022-11-16T17:16:42.984Z,5.57
2022-11-16T17:19:09.741Z,4.93
2022-11-16T17:21:36.104Z,3.15
2022-11-16T17:24:02.480Z,7.95
2022-11-16T17:26:29.397Z,6.72
2022-11-16T17:28:56.920Z,7.30
2022-11-16T17:31:24.403Z,8.20
2022-11-16T17:33:50.842Z,7.30
2022-11-16T17:36:17.765Z,11.05
2022-11-16T17:38:44.313Z,7.70
2022-11-16T17:41:14.436Z,8.52
2022-11-16T17:43:42.050Z,4.45
2022-11-16T17:46:16.511Z,6.20
2022-11-16T17:48:44.246Z,6.10
2022-11-16T17:51:11.791Z,6.53
2022-11-16T17:53:39.786Z,6.82
2022-11-16T17:56:07.412Z,4.72
2022-11-16T17:58:34.248Z,4.07
2022-11-16T18:01:00.698Z,5.90
2022-11-16T18:03:28.260Z,6.15
2022-11-16T18:06:04.616Z,4.55
2022-11-16T18:08:32.542Z,9.93
2022-11-16T18:11:10.115Z,5.85
2022-11-16T18:13:37.168Z,5.18
2022-11-16T18:16:04.477Z,4.72
2022-11-16T18:18:30.876Z,6.63
2022-11-16T18:20:57.243Z,10.95
2022-11-16T18:23:23.598Z,4.78
2022-11-16T18:25:49.904Z,9.18
2022-11-16T18:28:18.373Z,8.57
2022-11-16T18:30:44.719Z,6.88
2022-11-16T18:33:11.202Z,7.85
2022-11-16T18:35:37.505Z,4.95
2022-11-16T18:38:05.465Z,4.40
2022-11-16T18:40:31.805Z,9.93
2022-11-16T18:42:58.243Z,6.43
2022-11-16T18:45:24.727Z,10.85
2022-11-16T18:47:51.175Z,5.28
2022-11-16T18:50:22.589Z,11.48
2022-11-16T18:52:52.141Z,8.10
2022-11-16T18:55:18.872Z,8.45
2022-11-16T18:57:45.195Z,8.82
2022-11-16T19:00:12.291Z,9.80
2022-11-16T19:02:38.854Z,11.45
2022-11-16T19:05:05.945Z,10.05
2022-11-16T19:07:32.359Z,10.80
2022-11-16T19:09:58.859Z,10.27
2022-11-16T19:12:25.214Z,8.23
2022-11-16T19:14:51.544Z,8.43
2022-11-16T19:17:20.165Z,13.00
2022-11-16T19:19:46.510Z,6.35
2022-11-16T19:22:12.834Z,9.32
2022-11-16T19:24:39.428Z,9.05
2022-11-16T19:27:05.777Z,10.80
2022-11-16T19:29:32.131Z,8.98
2022-11-16T19:31:58.450Z,7.00
2022-11-16T19:34:27.801Z,17.75
2022-11-16T19:36:58.390Z,8.43
2022-11-16T19:39:25.689Z,8.00
2022-11-16T19:41:52.013Z,12.15
2022-11-16T19:44:18.398Z,11.80
2022-11-16T19:46:44.951Z,10.40
2022-11-16T19:49:19.627Z,8.75
2022-11-16T19:51:46.435Z,9.75
2022-11-16T19:54:14.629Z,7.47
2022-11-16T19:56:41.736Z,9.90
2022-11-16T19:59:08.083Z,9.77
2022-11-16T20:01:34.469Z,9.75
2022-11-16T20:04:03.224Z,11.20
2022-11-16T20:06:31.851Z,11.68
2022-11-16T20:09:03.991Z,11.73
2022-11-16T20:11:31.731Z,8.32
2022-11-16T20:13:58.406Z,8.75
2022-11-16T20:16:26.828Z,9.98
2022-11-16T20:18:53.555Z,9.43
2022-11-16T20:21:23.856Z,7.90
2022-11-16T20:23:53.801Z,10.60
2022-11-16T20:26:21.169Z,8.38
2022-11-16T20:28:50.953Z,9.57
2022-11-16T20:31:19.726Z,7.72
2022-11-16T20:33:52.693Z,11.77
2022-11-16T20:36:19.686Z,9.73
2022-11-16T20:38:46.035Z,9.63
2022-11-16T20:41:22.311Z,9.20
2022-11-16T20:43:53.257Z,11.57
2022-11-16T20:46:21.571Z,10.73
2022-11-16T20:48:48.235Z,17.30
2022-11-16T20:51:19.650Z,11.73
2022-11-16T20:53:47.595Z,10.65
2022-11-16T20:56:15.504Z,10.90
2022-11-16T20:58:41.880Z,6.68
2022-11-16T21:01:11.530Z,8.13
2022-11-16T21:03:38.471Z,12.85
2022-11-16T21:06:08.460Z,5.95
2022-11-16T21:08:35.953Z,10.48
2022-11-16T21:11:02.914Z,11.00
2022-11-16T21:13:47.834Z,11.73
2022-11-16T21:16:15.326Z,15.18
2022-11-16T21:18:41.716Z,20.63
2022-11-16T21:21:12.046Z,14.65
2022-11-16T21:23:39.429Z,17.00
2022-11-16T21:26:08.033Z,10.93
2022-11-16T21:28:34.476Z,13.55
2022-11-16T21:31:03.267Z,12.20
2022-11-16T21:33:29.724Z,13.57
2022-11-16T21:35:56.469Z,12.40
2022-11-16T21:38:25.230Z,12.43
2022-11-16T21:40:51.725Z,10.85
2022-11-16T21:43:18.074Z,9.27
2022-11-16T21:45:45.774Z,16.38
2022-11-16T21:48:12.656Z,12.25
2022-11-16T21:50:39.397Z,10.20
2022-11-16T21:53:06.970Z,8.95
2022-11-16T21:55:33.432Z,7.55
2022-11-16T21:58:00.440Z,10.77
2022-11-16T22:00:27.583Z,11.05
2022-11-16T22:02:53.999Z,8.50
2022-11-16T22:05:39.034Z,8.50
2022-11-16T22:08:06.406Z,9.05
2022-11-16T22:10:33.095Z,9.32
2022-11-16T22:12:59.788Z,14.65
2022-11-16T22:15:26.571Z,6.78
2022-11-16T22:17:52.941Z,8.93
2022-11-16T22:20:19.809Z,10.35
2022-11-16T22:22:46.248Z,10.05
2022-11-16T22:25:13.892Z,10.70
2022-11-16T22:28:05.677Z,13.02
2022-11-16T22:30:26.933Z,12.40
2022-11-16T22:32:53.262Z,12.98
2022-11-16T22:35:19.584Z,8.98
2022-11-16T22:37:46.037Z,11.90
2022-11-16T22:40:17.607Z,7.20
2022-11-16T22:42:44.253Z,14.77
2022-11-16T22:45:10.649Z,9.27
2022-11-16T22:47:36.974Z,9.63
2022-11-16T22:50:03.780Z,10.50
2022-11-16T22:52:30.174Z,10.73
2022-11-16T22:54:56.486Z,11.10
2022-11-16T22:57:22.797Z,11.05
2022-11-16T22:59:49.129Z,8.98
2022-11-16T23:02:15.477Z,11.02
2022-11-16T23:04:41.805Z,9.60
2022-11-16T23:07:08.190Z,7.55
2022-11-16T23:09:34.596Z,9.15
2022-11-16T23:12:19.247Z,6.85
2022-11-16T23:15:03.951Z,6.10
2022-11-16T23:17:32.710Z,9.25
2022-11-16T23:20:18.051Z,13.18
2022-11-16T23:23:02.678Z,7.93
2022-11-16T23:25:47.671Z,11.77
2022-11-16T23:28:15.020Z,9.95
2022-11-16T23:30:41.491Z,7.47
2022-11-16T23:33:08.513Z,5.72
2022-11-16T23:35:34.970Z,8.52
2022-11-16T23:38:06.388Z,5.75
2022-11-16T23:40:37.741Z,8.90
2022-11-16T23:43:23.448Z,10.00
2022-11-16T23:45:50.517Z,9.07
2022-11-16T23:48:17.759Z,6.50
2022-11-16T23:50:45.532Z,7.88
2022-11-16T23:53:12.584Z,10.93
2022-11-16T23:55:39.788Z,6.75
2022-11-16T23:58:08.226Z,5.45
